createdAt,value
2022-11-23T00:01:32.927Z,33.67
2022-11-23T00:04:01.112Z,33.90
2022-11-23T00:06:27.614Z,32.13
2022-11-23T00:08:54.215Z,32.47
2022-11-23T00:11:21.320Z,31.90
2022-11-23T00:13:47.951Z,32.93
2022-11-23T00:16:15.347Z,32.83
2022-11-23T00:18:41.807Z,29.83
2022-11-23T00:21:08.830Z,33.93
2022-11-23T00:23:35.519Z,32.60
2022-11-23T00:26:02.396Z,32.43
2022-11-23T00:28:28.952Z,33.63
2022-11-23T00:30:55.373Z,32.20
2022-11-23T00:33:21.822Z,34.97
2022-11-23T00:35:48.275Z,32.93
2022-11-23T00:38:14.718Z,30.87
2022-11-23T00:40:41.143Z,29.50
2022-11-23T00:43:07.620Z,31.87
2022-11-23T00:45:34.056Z,31.73
2022-11-23T00:48:00.512Z,31.03
2022-11-23T00:50:26.949Z,30.97
2022-11-23T00:52:53.354Z,30.20
2022-11-23T00:55:19.801Z,32.10
2022-11-23T00:57:46.234Z,32.20
2022-11-23T01:00:12.883Z,31.83
2022-11-23T01:02:39.372Z,31.50
2022-11-23T01:05:06.166Z,31.53
2022-11-23T01:07:32.676Z,32.83
2022-11-23T01:09:59.206Z,29.10
2022-11-23T01:12:25.678Z,29.73
2022-11-23T01:14:53.203Z,30.33
2022-11-23T01:17:19.614Z,28.30
2022-11-23T01:19:46.047Z,29.17
2022-11-23T01:22:12.503Z,30.07
2022-11-23T01:24:39.043Z,30.87
2022-11-23T01:27:05.465Z,30.93
2022-11-23T01:29:32.224Z,34.53
2022-11-23T01:31:58.880Z,33.37
2022-11-23T01:34:25.415Z,36.67
2022-11-23T01:36:51.829Z,35.00
2022-11-23T01:39:18.290Z,38.33
2022-11-23T01:41:45.023Z,37.53
2022-11-23T01:44:24.562Z,34.30
2022-11-23T01:46:50.988Z,35.33
2022-11-23T01:49:17.662Z,35.87
2022-11-23T01:51:44.827Z,39.67
2022-11-23T01:54:15.325Z,40.10
2022-11-23T01:56:46.353Z,36.60
2022-11-23T01:59:13.365Z,36.27
2022-11-23T02:01:39.806Z,37.03
2022-11-23T02:04:06.660Z,34.93
2022-11-23T02:06:33.108Z,36.27
2022-11-23T02:08:59.542Z,38.77
2022-11-23T02:11:26.010Z,35.43
2022-11-23T02:13:52.527Z,37.23
2022-11-23T02:16:18.990Z,36.57
2022-11-23T02:18:45.780Z,37.53
2022-11-23T02:21:12.238Z,36.13
2022-11-23T02:23:38.687Z,34.93
2022-11-23T02:26:09.739Z,36.43
2022-11-23T02:28:40.929Z,34.83
2022-11-23T02:33:51.211Z,34.70
2022-11-23T02:36:21.334Z,36.23
2022-11-23T02:38:47.747Z,36.33
2022-11-23T02:41:14.184Z,33.77
2022-11-23T02:43:40.640Z,32.60
2022-11-23T02:46:07.156Z,34.03
2022-11-23T02:48:33.660Z,33.60
2022-11-23T02:51:00.179Z,35.07
2022-11-23T02:53:26.613Z,36.10
2022-11-23T02:55:53.118Z,35.07
2022-11-23T02:58:19.545Z,31.73
2022-11-23T03:00:46.054Z,34.70
2022-11-23T03:03:12.515Z,34.13
2022-11-23T03:05:38.972Z,34.83
2022-11-23T03:08:05.583Z,32.70
2022-11-23T03:10:31.999Z,32.60
2022-11-23T03:12:58.513Z,30.60
2022-11-23T03:15:24.967Z,32.03
2022-11-23T03:17:51.455Z,33.30
2022-11-23T03:20:18.013Z,34.33
2022-11-23T03:22:44.681Z,32.67
2022-11-23T03:25:11.123Z,34.03
2022-11-23T03:27:38.065Z,34.20
2022-11-23T03:30:04.904Z,30.30
2022-11-23T03:32:31.375Z,31.13
2022-11-23T03:34:57.874Z,35.07
2022-11-23T03:37:25.569Z,35.10
2022-11-23T03:39:52.000Z,33.37
2022-11-23T03:42:18.526Z,32.83
2022-11-23T03:44:44.993Z,31.97
2022-11-23T03:47:12.171Z,34.80
2022-11-23T03:49:38.575Z,31.30
2022-11-23T03:52:05.169Z,29.63
2022-11-23T03:54:31.610Z,28.13
2022-11-23T03:56:58.035Z,30.00
2022-11-23T03:59:24.491Z,29.17
2022-11-23T04:01:50.906Z,29.77
2022-11-23T04:04:18.974Z,29.80
2022-11-23T04:06:45.476Z,31.23
2022-11-23T04:09:12.462Z,30.30
2022-11-23T04:11:38.915Z,32.83
2022-11-23T04:14:05.337Z,37.17
2022-11-23T04:16:31.829Z,36.03
2022-11-23T04:18:58.270Z,34.37
2022-11-23T04:21:24.684Z,33.53
2022-11-23T04:23:51.166Z,35.30
2022-11-23T04:26:17.639Z,36.57
2022-11-23T04:28:44.077Z,35.80
2022-11-23T04:31:10.668Z,36.50
2022-11-23T04:33:37.107Z,34.27
2022-11-23T04:36:03.686Z,37.27
2022-11-23T04:38:30.183Z,35.90
2022-11-23T04:40:56.569Z,35.23
2022-11-23T04:43:23.082Z,35.33
2022-11-23T04:45:49.518Z,37.50
2022-11-23T04:48:16.109Z,35.37
2022-11-23T04:50:45.640Z,35.90
2022-11-23T04:53:13.195Z,36.87
2022-11-23T04:55:39.630Z,36.00
2022-11-23T04:58:06.066Z,38.00
2022-11-23T05:00:32.495Z,37.47
2022-11-23T05:02:59.832Z,38.20
2022-11-23T05:05:26.388Z,36.47
2022-11-23T05:07:52.908Z,35.27
2022-11-23T05:10:19.360Z,35.40
2022-11-23T05:12:45.779Z,35.70
2022-11-23T05:15:12.499Z,33.70
2022-11-23T05:17:38.977Z,32.60
2022-11-23T05:20:05.861Z,33.10
2022-11-23T05:22:32.451Z,32.27
2022-11-23T05:24:58.922Z,31.63
2022-11-23T05:27:25.348Z,32.10
2022-11-23T05:29:51.780Z,33.73
2022-11-23T05:32:18.207Z,31.77
2022-11-23T05:34:44.664Z,33.00
2022-11-23T05:37:11.094Z,32.67
2022-11-23T05:39:37.748Z,32.10
2022-11-23T05:42:04.926Z,30.53
2022-11-23T05:44:31.722Z,33.83
2022-11-23T05:46:58.134Z,31.70
2022-11-23T05:49:24.664Z,35.80
2022-11-23T05:51:51.081Z,34.00
2022-11-23T05:54:17.812Z,32.60
2022-11-23T05:56:44.251Z,34.47
2022-11-23T05:59:11.374Z,31.40
2022-11-23T06:01:37.861Z,31.53
2022-11-23T06:04:06.371Z,32.40
2022-11-23T06:06:32.897Z,30.20
2022-11-23T06:08:59.300Z,32.30
2022-11-23T06:11:25.749Z,31.23
2022-11-23T06:13:52.191Z,30.40
2022-11-23T06:16:18.703Z,31.37
2022-11-23T06:18:45.125Z,30.37
2022-11-23T06:21:11.594Z,33.17
2022-11-23T06:23:38.091Z,32.00
2022-11-23T06:26:04.550Z,31.67
2022-11-23T06:28:31.010Z,34.17
2022-11-23T06:31:01.248Z,35.17
2022-11-23T06:33:27.686Z,32.83
2022-11-23T06:36:00.717Z,35.03
2022-11-23T06:38:27.345Z,32.10
2022-11-23T06:40:53.895Z,34.17
2022-11-23T06:43:20.299Z,34.63
2022-11-23T06:45:46.751Z,35.20
2022-11-23T06:48:14.000Z,32.90
2022-11-23T06:50:40.450Z,35.07
2022-11-23T06:53:07.250Z,36.10
2022-11-23T06:55:33.714Z,34.67
2022-11-23T06:58:00.252Z,34.77
2022-11-23T07:00:26.769Z,35.17
2022-11-23T07:02:53.526Z,34.87
2022-11-23T07:05:19.959Z,35.93
2022-11-23T07:07:46.491Z,34.00
2022-11-23T07:10:13.711Z,32.60
2022-11-23T07:12:41.182Z,31.47
2022-11-23T07:15:08.024Z,31.67
2022-11-23T07:17:38.442Z,31.23
2022-11-23T07:20:05.102Z,31.80
2022-11-23T07:22:31.613Z,29.27
2022-11-23T07:24:58.109Z,29.80
2022-11-23T07:27:24.619Z,29.70
2022-11-23T07:29:51.029Z,29.07
2022-11-23T07:32:17.453Z,29.07
2022-11-23T07:34:43.879Z,28.17
2022-11-23T07:37:10.625Z,32.80
2022-11-23T07:39:56.275Z,36.80
2022-11-23T07:42:44.578Z,35.30
2022-11-23T07:45:10.208Z,34.67
2022-11-23T07:47:36.909Z,35.10
2022-11-23T07:50:04.030Z,35.00
2022-11-23T07:52:30.639Z,32.07
2022-11-23T07:54:57.160Z,32.57
2022-11-23T07:57:23.617Z,32.20
2022-11-23T07:59:50.040Z,32.27
2022-11-23T08:02:16.710Z,32.40
2022-11-23T08:04:43.214Z,32.93
2022-11-23T08:07:09.743Z,31.73
2022-11-23T08:09:36.401Z,33.10
2022-11-23T08:12:02.861Z,31.33
2022-11-23T08:14:29.374Z,33.63
2022-11-23T08:16:55.883Z,34.00
2022-11-23T08:19:22.330Z,35.60
2022-11-23T08:21:48.798Z,32.57
2022-11-23T08:24:15.330Z,34.07
2022-11-23T08:26:41.737Z,33.47
2022-11-23T08:29:08.171Z,31.00
2022-11-23T08:31:34.580Z,29.70
2022-11-23T08:34:03.495Z,29.20
2022-11-23T08:36:30.349Z,28.10
2022-11-23T08:38:56.830Z,27.83
2022-11-23T08:41:23.375Z,28.30
2022-11-23T08:43:52.941Z,30.00
2022-11-23T08:46:19.702Z,28.97
2022-11-23T08:48:46.176Z,31.43
2022-11-23T08:51:12.679Z,33.53
2022-11-23T08:53:39.176Z,33.97
2022-11-23T08:56:06.179Z,30.07
2022-11-23T08:58:33.701Z,29.87
2022-11-23T09:01:00.207Z,31.37
2022-11-23T09:03:26.663Z,32.43
2022-11-23T09:05:54.703Z,31.00
2022-11-23T09:08:21.250Z,28.93
2022-11-23T09:10:47.945Z,29.87
2022-11-23T09:13:14.411Z,30.00
2022-11-23T09:15:40.835Z,29.50
2022-11-23T09:18:07.320Z,29.43
2022-11-23T09:20:33.726Z,31.27
2022-11-23T09:23:00.180Z,30.97
2022-11-23T09:25:26.603Z,30.77
2022-11-23T09:28:04.456Z,30.10
2022-11-23T09:30:30.928Z,27.03
2022-11-23T09:32:58.108Z,26.10
2022-11-23T09:35:25.445Z,25.57
2022-11-23T09:37:55.766Z,24.73
2022-11-23T09:40:22.303Z,25.53
2022-11-23T09:42:57.790Z,24.57
2022-11-23T09:45:43.251Z,25.07
2022-11-23T09:48:28.470Z,23.43
2022-11-23T09:51:13.736Z,20.77
2022-11-23T09:53:45.261Z,19.80
2022-11-23T09:56:16.680Z,20.80
2022-11-23T09:58:43.219Z,20.53
2022-11-23T10:01:13.791Z,21.20
2022-11-23T10:03:45.538Z,18.43
2022-11-23T10:06:22.576Z,18.93
2022-11-23T10:09:07.766Z,16.70
2022-11-23T10:11:40.342Z,17.93
2022-11-23T10:14:24.024Z,17.90
2022-11-23T10:16:53.607Z,19.97
2022-11-23T10:19:20.030Z,19.07
2022-11-23T10:22:04.836Z,18.13
2022-11-23T10:24:33.229Z,17.43
2022-11-23T10:27:00.028Z,19.40
2022-11-23T10:29:33.207Z,18.27
2022-11-23T10:31:59.907Z,18.03
2022-11-23T10:34:44.801Z,17.00
2022-11-23T10:37:14.624Z,18.27
2022-11-23T10:39:41.275Z,18.40
2022-11-23T10:42:28.887Z,17.93
2022-11-23T10:44:55.379Z,19.47
2022-11-23T10:47:34.918Z,20.63
2022-11-23T10:50:01.427Z,22.00
2022-11-23T10:52:31.721Z,18.30
2022-11-23T10:54:59.111Z,19.83
2022-11-23T10:57:30.970Z,19.10
2022-11-23T11:00:16.543Z,20.50
2022-11-23T11:02:44.271Z,19.93
2022-11-23T11:05:35.443Z,16.50
2022-11-23T11:08:17.176Z,16.43
2022-11-23T11:10:44.387Z,14.87
2022-11-23T11:13:23.906Z,16.37
2022-11-23T11:15:54.083Z,15.10
2022-11-23T11:18:20.591Z,17.57
2022-11-23T11:20:47.058Z,17.53
2022-11-23T11:23:17.411Z,15.83
2022-11-23T11:25:43.998Z,17.03
2022-11-23T11:28:24.396Z,17.50
2022-11-23T11:31:09.806Z,15.90
2022-11-23T11:33:38.365Z,15.17
2022-11-23T11:36:05.044Z,15.63
2022-11-23T11:38:35.284Z,13.60
2022-11-23T11:41:05.352Z,12.03
2022-11-23T11:43:39.423Z,12.57
2022-11-23T11:46:33.408Z,11.83
2022-11-23T11:49:13.084Z,13.67
2022-11-23T11:51:40.438Z,13.63
2022-11-23T11:54:22.342Z,14.13
2022-11-23T11:56:52.344Z,12.53
2022-11-23T11:59:28.740Z,13.10
2022-11-23T12:02:01.444Z,13.50
2022-11-23T12:04:50.978Z,13.30
2022-11-23T12:07:36.715Z,12.53
2022-11-23T12:10:12.493Z,12.93
2022-11-23T12:12:38.998Z,13.50
2022-11-23T12:15:26.356Z,14.83
2022-11-23T12:18:11.916Z,15.53
2022-11-23T12:20:47.509Z,15.33
2022-11-23T12:23:13.999Z,16.13
2022-11-23T12:25:49.427Z,15.27
2022-11-23T12:28:16.669Z,17.30
2022-11-23T12:31:03.474Z,14.97
2022-11-23T12:33:37.844Z,15.63
2022-11-23T12:36:10.453Z,17.27
2022-11-23T12:38:39.866Z,15.80
2022-11-23T12:41:09.213Z,15.47
2022-11-23T12:43:41.682Z,16.00
2022-11-23T12:46:17.262Z,16.90
2022-11-23T12:48:46.809Z,15.07
2022-11-23T12:51:22.008Z,17.20
2022-11-23T12:53:51.409Z,15.37
2022-11-23T12:56:17.968Z,16.13
2022-11-23T12:58:44.508Z,16.70
2022-11-23T13:01:19.262Z,15.77
2022-11-23T13:03:58.000Z,15.17
2022-11-23T13:06:27.531Z,14.80
2022-11-23T13:09:06.265Z,16.67
2022-11-23T13:11:47.948Z,16.20
2022-11-23T13:14:26.297Z,15.90
2022-11-23T13:17:14.194Z,17.60
2022-11-23T13:19:45.359Z,14.83
2022-11-23T13:22:13.491Z,14.23
2022-11-23T13:24:40.020Z,14.90
2022-11-23T13:27:15.852Z,13.50
2022-11-23T13:29:51.505Z,13.63
2022-11-23T13:32:36.765Z,13.80
2022-11-23T13:35:03.268Z,14.67
2022-11-23T13:37:29.694Z,14.83
2022-11-23T13:40:00.392Z,14.37
2022-11-23T13:42:27.129Z,14.70
2022-11-23T13:45:12.518Z,14.13
2022-11-23T13:47:42.537Z,14.87
2022-11-23T13:50:17.390Z,15.20
2022-11-23T13:52:50.090Z,14.67
2022-11-23T13:55:19.642Z,14.73
2022-11-23T13:57:48.540Z,14.93
2022-11-23T14:00:33.926Z,14.57
2022-11-23T14:03:19.090Z,15.07
2022-11-23T14:05:48.733Z,17.53
2022-11-23T14:08:15.214Z,15.97
2022-11-23T14:10:44.627Z,15.30
2022-11-23T14:13:21.312Z,15.73
2022-11-23T14:15:54.029Z,17.47
2022-11-23T14:18:30.330Z,17.27
2022-11-23T14:21:04.989Z,18.47
2022-11-23T14:23:36.360Z,18.50
2022-11-23T14:26:21.454Z,18.73
2022-11-23T14:29:12.048Z,19.20
2022-11-23T14:31:57.370Z,19.57
2022-11-23T14:34:25.509Z,19.70
2022-11-23T14:37:18.219Z,21.33
2022-11-23T14:39:44.654Z,20.37
2022-11-23T14:42:14.735Z,20.60
2022-11-23T14:44:41.865Z,18.50
2022-11-23T14:47:09.358Z,19.67
2022-11-23T14:49:36.187Z,17.73
2022-11-23T14:52:03.391Z,16.00
2022-11-23T14:54:30.500Z,17.03
2022-11-23T14:56:57.985Z,16.37
2022-11-23T14:59:28.501Z,15.30
2022-11-23T15:02:15.299Z,14.60
2022-11-23T15:05:07.896Z,16.20
2022-11-23T15:07:53.609Z,15.97
2022-11-23T15:10:26.337Z,16.03
2022-11-23T15:12:52.761Z,17.07
2022-11-23T15:15:19.522Z,17.23
2022-11-23T15:17:55.618Z,16.30
2022-11-23T15:20:26.779Z,17.27
2022-11-23T15:22:53.222Z,16.03
2022-11-23T15:25:19.872Z,17.10
2022-11-23T15:27:47.716Z,15.57
2022-11-23T15:30:18.266Z,16.23
2022-11-23T15:32:44.783Z,17.53
2022-11-23T15:35:12.268Z,15.23
2022-11-23T15:37:45.911Z,16.87
2022-11-23T15:40:15.686Z,15.27
2022-11-23T15:42:42.371Z,17.63
2022-11-23T15:45:28.774Z,18.07
2022-11-23T15:47:55.399Z,17.50
2022-11-23T15:50:21.842Z,19.03
2022-11-23T15:52:48.405Z,18.93
2022-11-23T15:55:15.742Z,18.97
2022-11-23T15:57:42.769Z,18.33
2022-11-23T16:00:18.687Z,17.27
2022-11-23T16:02:45.190Z,18.73
2022-11-23T16:05:11.664Z,16.40
2022-11-23T16:07:51.145Z,17.73
2022-11-23T16:10:18.742Z,17.93
2022-11-23T16:12:52.193Z,18.33
2022-11-23T16:15:44.493Z,19.27
2022-11-23T16:18:13.986Z,17.50
2022-11-23T16:20:43.676Z,19.80
2022-11-23T16:23:17.628Z,20.53
2022-11-23T16:25:44.052Z,17.20
2022-11-23T16:28:17.762Z,19.83
2022-11-23T16:30:44.760Z,18.63
2022-11-23T16:33:17.832Z,19.60
2022-11-23T16:35:44.421Z,21.27
2022-11-23T16:38:12.666Z,19.83
2022-11-23T16:40:39.638Z,21.93
2022-11-23T16:43:06.630Z,23.00
2022-11-23T16:45:33.205Z,24.60
2022-11-23T16:48:00.534Z,21.80
2022-11-23T16:50:27.580Z,21.90
2022-11-23T16:52:54.043Z,21.73
2022-11-23T16:55:20.544Z,21.83
2022-11-23T16:57:47.032Z,21.43
2022-11-23T17:00:17.664Z,18.73
2022-11-23T17:02:44.235Z,18.27
2022-11-23T17:05:13.754Z,21.27
2022-11-23T17:07:40.273Z,19.80
2022-11-23T17:10:07.248Z,17.70
2022-11-23T17:12:33.665Z,19.90
2022-11-23T17:15:00.155Z,20.40
2022-11-23T17:17:26.744Z,20.43
2022-11-23T17:19:53.191Z,22.63
2022-11-23T17:22:19.810Z,20.13
2022-11-23T17:24:46.605Z,20.37
2022-11-23T17:27:14.164Z,20.87
2022-11-23T17:29:42.373Z,19.43
2022-11-23T17:32:10.581Z,21.77
2022-11-23T17:34:36.992Z,21.77
2022-11-23T17:37:03.456Z,19.87
2022-11-23T17:39:29.920Z,18.87
2022-11-23T17:42:01.539Z,19.27
2022-11-23T17:44:30.988Z,20.30
2022-11-23T17:46:57.675Z,16.87
2022-11-23T17:49:28.369Z,19.70
2022-11-23T17:51:55.647Z,16.73
2022-11-23T17:54:22.551Z,17.70
2022-11-23T17:56:49.444Z,18.20
2022-11-23T17:59:15.982Z,18.27
2022-11-23T18:01:42.486Z,19.00
2022-11-23T18:04:08.970Z,18.73
2022-11-23T18:06:35.551Z,19.17
2022-11-23T18:09:01.955Z,19.13
2022-11-23T18:11:28.725Z,18.50
2022-11-23T18:13:55.414Z,19.13
2022-11-23T18:16:21.945Z,19.53
2022-11-23T18:18:48.601Z,20.77
2022-11-23T18:21:15.257Z,20.43
2022-11-23T18:23:42.456Z,20.97
2022-11-23T18:26:11.953Z,21.33
2022-11-23T18:28:38.428Z,20.50
2022-11-23T18:31:04.972Z,20.07
2022-11-23T18:33:31.444Z,19.97
2022-11-23T18:36:03.658Z,19.37
2022-11-23T18:38:32.001Z,20.07
2022-11-23T18:40:58.455Z,19.40
2022-11-23T18:43:24.909Z,20.60
2022-11-23T18:45:51.427Z,20.67
2022-11-23T18:48:17.964Z,19.77
2022-11-23T18:50:44.707Z,21.07
2022-11-23T18:53:11.155Z,20.70
2022-11-23T18:55:37.635Z,17.70
2022-11-23T18:58:04.079Z,18.97
2022-11-23T19:00:30.574Z,18.53
2022-11-23T19:02:57.800Z,19.23
2022-11-23T19:05:24.269Z,19.03
2022-11-23T19:07:51.630Z,21.07
2022-11-23T19:10:18.691Z,20.87
2022-11-23T19:12:45.303Z,20.30
2022-11-23T19:15:11.985Z,21.03
2022-11-23T19:17:38.639Z,18.30
2022-11-23T19:20:08.480Z,19.33
2022-11-23T19:22:35.354Z,18.90
2022-11-23T19:25:02.372Z,20.47
2022-11-23T19:27:28.864Z,21.17
2022-11-23T19:29:55.355Z,19.83
2022-11-23T19:32:21.847Z,20.60
2022-11-23T19:34:48.466Z,18.77
2022-11-23T19:37:15.035Z,23.20
2022-11-23T19:39:41.880Z,21.00
2022-11-23T19:42:08.367Z,21.20
2022-11-23T19:44:34.847Z,20.37
2022-11-23T19:47:02.844Z,20.93
2022-11-23T19:49:31.412Z,21.13
2022-11-23T19:51:58.312Z,21.40
2022-11-23T19:54:24.830Z,20.43
2022-11-23T19:56:51.366Z,21.73
2022-11-23T19:59:17.873Z,22.03
2022-11-23T20:01:44.321Z,22.10
2022-11-23T20:04:10.935Z,23.00
2022-11-23T20:06:38.039Z,22.90
2022-11-23T20:09:05.688Z,22.53
2022-11-23T20:11:32.388Z,21.33
2022-11-23T20:13:59.025Z,23.87
2022-11-23T20:16:26.179Z,23.33
2022-11-23T20:18:59.990Z,24.13
2022-11-23T20:21:26.935Z,23.23
2022-11-23T20:24:12.211Z,24.50
2022-11-23T20:26:38.694Z,24.83
2022-11-23T20:29:05.534Z,24.80
2022-11-23T20:31:32.242Z,22.97
2022-11-23T20:33:58.887Z,23.53
2022-11-23T20:36:26.036Z,22.67
2022-11-23T20:38:52.710Z,22.77
2022-11-23T20:41:20.368Z,22.00
2022-11-23T20:43:47.234Z,24.10
2022-11-23T20:46:22.418Z,24.90
2022-11-23T20:48:58.729Z,24.83
2022-11-23T20:51:25.770Z,24.53
2022-11-23T20:53:52.534Z,22.30
2022-11-23T20:56:24.267Z,22.50
2022-11-23T20:58:53.935Z,21.27
2022-11-23T21:01:20.726Z,21.23
2022-11-23T21:03:51.861Z,22.03
2022-11-23T21:06:18.395Z,21.63
2022-11-23T21:08:45.080Z,20.80
2022-11-23T21:11:31.853Z,20.17
2022-11-23T21:14:10.001Z,22.03
2022-11-23T21:16:45.879Z,23.27
2022-11-23T21:19:12.699Z,23.40
2022-11-23T21:21:39.291Z,21.03
2022-11-23T21:24:05.999Z,22.13
2022-11-23T21:26:32.548Z,22.23
2022-11-23T21:28:59.310Z,23.00
2022-11-23T21:31:25.854Z,21.73
2022-11-23T21:33:54.202Z,22.37
2022-11-23T21:36:25.049Z,22.20
2022-11-23T21:38:51.944Z,23.90
2022-11-23T21:41:18.397Z,23.10
2022-11-23T21:43:51.487Z,21.63
2022-11-23T21:46:18.302Z,24.00
2022-11-23T21:48:44.877Z,24.90
2022-11-23T21:51:12.020Z,24.20
2022-11-23T21:53:44.793Z,21.57
2022-11-23T21:56:12.143Z,21.97
2022-11-23T21:58:38.624Z,21.73
2022-11-23T22:01:06.179Z,21.60
2022-11-23T22:03:36.683Z,22.47
2022-11-23T22:06:03.233Z,22.77
2022-11-23T22:08:30.035Z,22.93
2022-11-23T22:10:56.683Z,22.93
2022-11-23T22:13:23.242Z,22.23
2022-11-23T22:15:49.919Z,21.77
2022-11-23T22:18:16.468Z,21.63
2022-11-23T22:20:42.958Z,22.57
2022-11-23T22:23:10.276Z,23.03
2022-11-23T22:25:36.870Z,21.77
2022-11-23T22:28:03.439Z,22.47
2022-11-23T22:30:30.069Z,21.70
2022-11-23T22:32:57.445Z,24.20
2022-11-23T22:35:24.029Z,22.40
2022-11-23T22:37:50.603Z,23.27
2022-11-23T22:40:17.066Z,21.90
2022-11-23T22:42:43.639Z,23.60
2022-11-23T22:45:10.152Z,23.10
2022-11-23T22:47:36.649Z,23.20
2022-11-23T22:50:03.208Z,24.20
2022-11-23T22:52:29.733Z,23.17
2022-11-23T22:54:56.220Z,20.93
2022-11-23T22:57:22.714Z,21.20
2022-11-23T22:59:49.250Z,19.67
2022-11-23T23:02:15.805Z,21.07
2022-11-23T23:04:42.527Z,19.73
2022-11-23T23:07:09.206Z,20.63
2022-11-23T23:09:35.902Z,21.57
2022-11-23T23:12:02.420Z,22.27
2022-11-23T23:14:29.016Z,21.70
2022-11-23T23:16:55.582Z,22.20
2022-11-23T23:19:22.464Z,20.47
2022-11-23T23:21:48.939Z,20.93
2022-11-23T23:24:15.467Z,19.90
2022-11-23T23:26:41.960Z,20.33
2022-11-23T23:29:08.835Z,20.23
2022-11-23T23:31:36.191Z,20.07
2022-11-23T23:34:02.764Z,20.40
2022-11-23T23:36:30.039Z,22.17
2022-11-23T23:38:57.656Z,20.47
2022-11-23T23:41:24.332Z,20.27
2022-11-23T23:43:50.979Z,21.93
2022-11-23T23:46:17.705Z,21.03
2022-11-23T23:48:44.690Z,20.37
2022-11-23T23:51:12.291Z,21.10
2022-11-23T23:53:39.031Z,20.20
2022-11-23T23:56:06.203Z,18.33
2022-11-23T23:58:32.854Z,20.63
